createdAt,value
2023-05-08T00:02:18.524Z,11.14
2023-05-08T00:04:45.061Z,11.19
2023-05-08T00:07:11.583Z,11.13
2023-05-08T00:09:37.946Z,11.15
2023-05-08T00:12:04.811Z,11.11
2023-05-08T00:14:31.199Z,11.07
2023-05-08T00:16:57.708Z,11.05
2023-05-08T00:19:24.091Z,11.03
2023-05-08T00:21:50.518Z,10.99
2023-05-08T00:24:16.916Z,10.96
2023-05-08T00:26:44.268Z,10.93
2023-05-08T00:29:11.276Z,10.89
2023-05-08T00:31:37.621Z,10.88
2023-05-08T00:34:04.024Z,10.86
2023-05-08T00:36:30.417Z,10.83
2023-05-08T00:38:56.813Z,10.77
2023-05-08T00:41:23.170Z,10.75
2023-05-08T00:43:49.481Z,10.69
2023-05-08T00:46:16.304Z,10.63
2023-05-08T00:48:43.881Z,10.59
2023-05-08T00:51:11.261Z,10.55
2023-05-08T00:53:42.788Z,10.55
2023-05-08T00:56:12.585Z,10.53
2023-05-08T00:58:39.977Z,10.50
2023-05-08T01:01:06.502Z,10.46
2023-05-08T01:03:35.682Z,10.44
2023-05-08T01:06:03.653Z,10.41
2023-05-08T01:08:31.817Z,10.37
2023-05-08T01:11:06.288Z,10.31
2023-05-08T01:13:54.108Z,10.31
2023-05-08T01:16:34.308Z,10.22
2023-05-08T01:19:34.735Z,10.15
2023-05-08T01:22:30.453Z,10.11
2023-05-08T01:25:34.434Z,10.06
2023-05-08T01:28:19.432Z,10.02
2023-05-08T01:31:02.496Z,9.96
2023-05-08T01:33:37.080Z,9.90
2023-05-08T01:36:23.489Z,9.90
2023-05-08T01:39:01.076Z,9.91
2023-05-08T01:41:31.546Z,9.92
2023-05-08T01:44:18.041Z,9.95
2023-05-08T01:46:48.977Z,9.93
2023-05-08T01:49:26.773Z,9.92
2023-05-08T01:52:18.730Z,9.92
2023-05-08T01:55:16.089Z,9.89
2023-05-08T01:57:48.379Z,9.89
2023-05-08T02:00:18.088Z,9.86
2023-05-08T02:02:45.869Z,9.81
2023-05-08T02:05:14.067Z,9.80
2023-05-08T02:07:41.964Z,9.83
2023-05-08T02:10:09.981Z,9.93
2023-05-08T02:12:37.754Z,9.96
2023-05-08T02:15:05.619Z,9.95
2023-05-08T02:17:33.587Z,10.01
2023-05-08T02:20:03.447Z,10.01
2023-05-08T02:22:32.766Z,9.98
2023-05-08T02:24:59.187Z,9.96
2023-05-08T02:27:27.937Z,10.01
2023-05-08T02:29:55.216Z,10.04
2023-05-08T02:32:25.081Z,10.06
2023-05-08T02:35:02.597Z,10.00
2023-05-08T02:37:31.065Z,10.04
2023-05-08T02:39:58.819Z,10.05
2023-05-08T02:42:25.434Z,10.04
2023-05-08T02:44:51.897Z,10.01
2023-05-08T02:47:27.373Z,10.00
2023-05-08T02:50:05.497Z,9.99
2023-05-08T02:53:00.929Z,9.94
2023-05-08T02:55:39.757Z,9.98
2023-05-08T02:58:22.142Z,10.02
2023-05-08T03:01:07.266Z,10.03
2023-05-08T03:03:53.208Z,10.04
2023-05-08T03:06:24.155Z,9.99
2023-05-08T03:08:52.448Z,9.91
2023-05-08T03:11:24.156Z,9.85
2023-05-08T03:13:54.737Z,9.81
2023-05-08T03:16:24.422Z,9.76
2023-05-08T03:18:58.115Z,9.67
2023-05-08T03:21:28.243Z,9.58
2023-05-08T03:23:57.257Z,9.57
2023-05-08T03:26:23.924Z,9.51
2023-05-08T03:28:52.458Z,9.36
2023-05-08T03:31:23.101Z,9.29
2023-05-08T03:33:53.258Z,9.25
2023-05-08T03:36:20.204Z,9.22
2023-05-08T03:38:46.804Z,9.15
2023-05-08T03:41:13.553Z,9.08
2023-05-08T03:43:41.210Z,9.05
2023-05-08T03:46:08.857Z,9.02
2023-05-08T03:48:35.728Z,9.02
2023-05-08T03:51:04.167Z,8.99
2023-05-08T03:53:32.241Z,8.94
2023-05-08T03:55:59.472Z,8.96
2023-05-08T03:58:35.503Z,8.96
2023-05-08T04:01:23.320Z,8.98
2023-05-08T04:04:05.210Z,8.93
2023-05-08T04:06:50.156Z,8.91
2023-05-08T04:09:58.270Z,8.89
2023-05-08T04:13:02.341Z,8.85
2023-05-08T04:15:38.360Z,8.84
2023-05-08T04:18:09.737Z,8.84
2023-05-08T04:20:41.262Z,8.85
2023-05-08T04:23:09.269Z,8.85
2023-05-08T04:25:39.462Z,8.88
2023-05-08T04:28:06.231Z,8.91
2023-05-08T04:30:33.197Z,8.95
2023-05-08T04:33:02.573Z,8.99
2023-05-08T04:35:29.455Z,9.03
2023-05-08T04:37:56.330Z,9.10
2023-05-08T04:40:22.736Z,9.14
2023-05-08T04:42:49.185Z,9.19
2023-05-08T04:45:15.769Z,9.25
2023-05-08T04:47:42.233Z,9.32
2023-05-08T04:50:09.252Z,9.40
2023-05-08T04:52:35.605Z,9.44
2023-05-08T04:55:02.220Z,9.49
2023-05-08T04:57:28.637Z,9.58
2023-05-08T04:59:55.138Z,9.66
2023-05-08T05:02:21.604Z,9.70
2023-05-08T05:04:48.063Z,9.78
2023-05-08T05:07:14.400Z,9.82
2023-05-08T05:09:40.999Z,9.92
2023-05-08T05:12:07.542Z,10.06
2023-05-08T05:14:34.852Z,10.28
2023-05-08T05:17:01.380Z,10.58
2023-05-08T05:19:27.754Z,10.89
2023-05-08T05:21:54.159Z,11.01
2023-05-08T05:24:20.488Z,11.12
2023-05-08T05:26:46.970Z,11.25
2023-05-08T05:29:13.344Z,11.46
2023-05-08T05:31:39.782Z,11.44
2023-05-08T05:34:06.220Z,11.51
2023-05-08T05:36:32.569Z,11.64
2023-05-08T05:38:58.962Z,11.75
2023-05-08T05:41:25.780Z,11.89
2023-05-08T05:43:52.184Z,12.01
2023-05-08T05:46:18.790Z,12.08
2023-05-08T05:48:45.207Z,12.16
2023-05-08T05:51:12.198Z,12.29
2023-05-08T05:53:38.588Z,12.47
2023-05-08T05:56:05.424Z,12.72
2023-05-08T05:58:32.022Z,13.14
2023-05-08T06:01:00.968Z,13.45
2023-05-08T06:03:27.857Z,13.63
2023-05-08T06:05:55.808Z,13.73
2023-05-08T06:08:22.961Z,13.65
2023-05-08T06:10:49.436Z,13.82
2023-05-08T06:13:16.006Z,14.16
2023-05-08T06:15:42.485Z,14.45
2023-05-08T06:18:08.941Z,14.64
2023-05-08T06:20:37.416Z,14.65
2023-05-08T06:23:03.922Z,14.66
2023-05-08T06:25:31.064Z,14.73
2023-05-08T06:27:57.469Z,14.73
2023-05-08T06:30:23.877Z,14.79
2023-05-08T06:32:50.372Z,14.63
2023-05-08T06:35:19.295Z,14.83
2023-05-08T06:37:46.623Z,15.04
2023-05-08T06:40:13.718Z,15.25
2023-05-08T06:42:41.003Z,15.17
2023-05-08T06:45:09.060Z,15.35
2023-05-08T06:47:35.836Z,15.44
2023-05-08T06:50:02.242Z,15.73
2023-05-08T06:52:28.598Z,15.78
2023-05-08T06:54:55.008Z,15.74
2023-05-08T06:57:21.340Z,16.23
2023-05-08T06:59:47.685Z,17.19
2023-05-08T07:02:16.040Z,17.68
2023-05-08T07:04:44.315Z,17.58
2023-05-08T07:07:11.473Z,17.31
2023-05-08T07:09:37.825Z,16.91
2023-05-08T07:12:04.379Z,16.86
2023-05-08T07:14:30.754Z,17.13
2023-05-08T07:16:58.329Z,17.31
2023-05-08T07:19:25.015Z,17.19
2023-05-08T07:21:51.445Z,17.25
2023-05-08T07:24:17.908Z,17.23
2023-05-08T07:26:44.292Z,16.90
2023-05-08T07:29:10.669Z,16.53
2023-05-08T07:31:40.714Z,16.30
2023-05-08T07:34:07.262Z,16.26
2023-05-08T07:36:33.853Z,16.68
2023-05-08T07:39:00.244Z,16.79
2023-05-08T07:41:26.645Z,16.68
2023-05-08T07:43:53.357Z,16.76
2023-05-08T07:46:19.899Z,16.69
2023-05-08T07:48:46.439Z,16.48
2023-05-08T07:51:13.747Z,16.38
2023-05-08T07:53:40.134Z,16.27
2023-05-08T07:56:06.936Z,16.27
2023-05-08T07:58:33.347Z,16.45
2023-05-08T08:00:59.790Z,16.69
2023-05-08T08:03:26.259Z,17.00
2023-05-08T08:05:52.700Z,16.83
2023-05-08T08:08:19.104Z,17.00
2023-05-08T08:10:45.506Z,17.30
2023-05-08T08:13:11.877Z,17.53
2023-05-08T08:15:38.331Z,17.72
2023-05-08T08:18:04.823Z,17.67
2023-05-08T08:20:31.241Z,17.44
2023-05-08T08:22:57.921Z,17.19
2023-05-08T08:25:24.454Z,17.08
2023-05-08T08:27:50.920Z,17.09
2023-05-08T08:30:18.544Z,17.06
2023-05-08T08:32:46.929Z,16.94
2023-05-08T08:35:13.856Z,17.06
2023-05-08T08:37:40.547Z,17.15
2023-05-08T08:40:07.561Z,17.39
2023-05-08T08:42:34.328Z,17.50
2023-05-08T08:45:01.169Z,17.69
2023-05-08T08:47:31.898Z,17.98
2023-05-08T08:50:03.047Z,18.24
2023-05-08T08:52:43.364Z,18.20
2023-05-08T08:55:15.020Z,18.74
2023-05-08T08:57:58.878Z,19.00
2023-05-08T09:00:29.883Z,18.47
2023-05-08T09:02:56.601Z,18.45
2023-05-08T09:05:24.174Z,18.67
2023-05-08T09:07:54.207Z,18.82
2023-05-08T09:10:23.448Z,19.31
2023-05-08T09:12:49.855Z,20.11
2023-05-08T09:15:16.604Z,20.28
2023-05-08T09:17:43.032Z,22.83
2023-05-08T09:20:11.543Z,23.32
2023-05-08T09:22:38.702Z,22.59
2023-05-08T09:25:05.379Z,21.55
2023-05-08T09:27:32.589Z,21.00
2023-05-08T09:30:00.795Z,20.48
2023-05-08T09:32:28.154Z,20.02
2023-05-08T09:34:54.833Z,19.76
2023-05-08T09:37:21.625Z,20.10
2023-05-08T09:39:48.458Z,20.64
2023-05-08T09:42:14.873Z,20.66
2023-05-08T09:44:54.232Z,20.38
2023-05-08T09:47:25.116Z,20.11
2023-05-08T09:50:08.722Z,20.01
2023-05-08T09:52:37.220Z,19.77
2023-05-08T09:55:10.963Z,19.65
2023-05-08T09:57:39.729Z,19.75
2023-05-08T10:00:13.599Z,19.67
2023-05-08T10:02:42.297Z,19.51
2023-05-08T10:05:31.168Z,19.53
2023-05-08T10:07:59.211Z,19.43
2023-05-08T10:10:30.841Z,19.28
2023-05-08T10:12:58.790Z,19.29
2023-05-08T10:15:28.564Z,19.38
2023-05-08T10:18:03.973Z,19.37
2023-05-08T10:20:31.189Z,19.44
2023-05-08T10:22:58.545Z,19.38
2023-05-08T10:25:25.753Z,19.23
2023-05-08T10:28:06.865Z,19.32
2023-05-08T10:30:34.292Z,19.16
2023-05-08T10:33:03.219Z,18.98
2023-05-08T10:35:31.517Z,19.09
2023-05-08T10:37:58.844Z,19.08
2023-05-08T10:40:25.333Z,19.14
2023-05-08T10:42:52.047Z,19.28
2023-05-08T10:45:18.778Z,19.49
2023-05-08T10:48:08.588Z,20.06
2023-05-08T10:51:03.006Z,21.02
2023-05-08T10:53:49.202Z,21.80
2023-05-08T10:56:15.594Z,21.60
2023-05-08T10:58:41.953Z,21.26
2023-05-08T11:01:08.342Z,20.97
2023-05-08T11:03:46.204Z,20.51
2023-05-08T11:06:15.025Z,20.56
2023-05-08T11:08:50.499Z,20.45
2023-05-08T11:11:27.660Z,20.49
2023-05-08T11:13:59.265Z,20.25
2023-05-08T11:16:53.514Z,19.88
2023-05-08T11:19:20.709Z,19.51
2023-05-08T11:22:23.358Z,19.43
2023-05-08T11:24:52.280Z,19.59
2023-05-08T11:27:19.104Z,19.82
2023-05-08T11:29:45.445Z,19.82
2023-05-08T11:32:12.132Z,19.68
2023-05-08T11:34:44.634Z,19.62
2023-05-08T11:37:16.610Z,19.85
2023-05-08T11:39:43.019Z,20.10
2023-05-08T11:42:27.535Z,21.09
2023-05-08T11:45:07.534Z,21.07
2023-05-08T11:47:42.622Z,22.23
2023-05-08T11:50:10.551Z,22.06
2023-05-08T11:52:39.261Z,21.68
2023-05-08T11:55:10.731Z,21.34
2023-05-08T11:57:37.568Z,21.13
2023-05-08T12:00:12.053Z,20.70
2023-05-08T12:02:40.924Z,20.56
2023-05-08T12:05:08.558Z,20.41
2023-05-08T12:07:46.668Z,20.18
2023-05-08T12:10:14.438Z,20.04
2023-05-08T12:12:42.746Z,20.38
2023-05-08T12:15:11.050Z,21.09
2023-05-08T12:17:38.228Z,21.49
2023-05-08T12:20:18.730Z,21.88
2023-05-08T12:22:52.840Z,21.69
2023-05-08T12:25:19.697Z,21.23
2023-05-08T12:27:46.348Z,21.26
2023-05-08T12:30:14.592Z,22.25
2023-05-08T12:32:42.187Z,22.13
2023-05-08T12:35:10.001Z,21.76
2023-05-08T12:37:37.037Z,21.89
2023-05-08T12:40:04.576Z,21.66
2023-05-08T12:42:48.391Z,21.30
2023-05-08T12:45:21.699Z,21.22
2023-05-08T12:47:52.401Z,21.48
2023-05-08T12:50:25.143Z,22.10
2023-05-08T12:52:52.231Z,22.35
2023-05-08T12:55:23.185Z,22.50
2023-05-08T12:57:51.861Z,22.31
2023-05-08T13:00:18.893Z,22.63
2023-05-08T13:02:55.508Z,22.66
2023-05-08T13:05:23.443Z,22.15
2023-05-08T13:07:51.275Z,21.64
2023-05-08T13:10:23.966Z,21.70
2023-05-08T13:12:52.130Z,21.45
2023-05-08T13:15:18.521Z,21.41
2023-05-08T13:17:44.915Z,21.41
2023-05-08T13:20:11.677Z,21.59
2023-05-08T13:22:38.259Z,21.52
2023-05-08T13:25:05.273Z,21.68
2023-05-08T13:27:31.648Z,21.91
2023-05-08T13:29:58.040Z,21.83
2023-05-08T13:32:24.392Z,21.63
2023-05-08T13:34:52.283Z,21.37
2023-05-08T13:37:21.546Z,21.31
2023-05-08T13:39:47.853Z,21.36
2023-05-08T13:42:14.179Z,21.27
2023-05-08T13:44:40.630Z,21.10
2023-05-08T13:47:07.025Z,20.79
2023-05-08T13:49:33.362Z,20.76
2023-05-08T13:51:59.767Z,20.92
2023-05-08T13:54:26.104Z,21.12
2023-05-08T13:56:53.814Z,21.15
2023-05-08T13:59:20.204Z,21.16
2023-05-08T14:01:46.563Z,21.11
2023-05-08T14:04:12.999Z,21.02
2023-05-08T14:06:39.529Z,20.97
2023-05-08T14:09:05.941Z,20.93
2023-05-08T14:11:32.356Z,20.96
2023-05-08T14:13:58.814Z,20.94
2023-05-08T14:16:25.281Z,20.85
2023-05-08T14:18:51.727Z,20.81
2023-05-08T14:21:18.134Z,20.84
2023-05-08T14:23:45.073Z,20.77
2023-05-08T14:26:11.492Z,20.80
2023-05-08T14:28:37.905Z,20.88
2023-05-08T14:31:04.349Z,21.02
2023-05-08T14:33:30.733Z,21.20
2023-05-08T14:35:57.192Z,21.17
2023-05-08T14:38:23.603Z,21.36
2023-05-08T14:40:51.020Z,21.55
2023-05-08T14:43:17.954Z,21.66
2023-05-08T14:45:44.258Z,21.38
2023-05-08T14:48:10.665Z,21.31
2023-05-08T14:50:37.002Z,21.31
2023-05-08T14:53:03.704Z,21.16
2023-05-08T14:55:30.807Z,20.90
2023-05-08T14:57:57.764Z,20.84
2023-05-08T15:00:24.287Z,20.79
2023-05-08T15:02:50.708Z,20.66
2023-05-08T15:05:20.185Z,20.43
2023-05-08T15:07:47.290Z,20.42
2023-05-08T15:10:13.659Z,20.33
2023-05-08T15:12:40.091Z,20.26
2023-05-08T15:15:07.106Z,20.12
2023-05-08T15:17:36.339Z,20.03
2023-05-08T15:20:04.194Z,20.01
2023-05-08T15:22:30.578Z,20.02
2023-05-08T15:25:02.103Z,20.04
2023-05-08T15:27:31.782Z,20.05
2023-05-08T15:29:58.542Z,20.14
2023-05-08T15:32:25.024Z,20.26
2023-05-08T15:34:51.454Z,20.26
2023-05-08T15:37:17.844Z,20.31
2023-05-08T15:39:44.214Z,20.31
2023-05-08T15:42:10.632Z,20.37
2023-05-08T15:44:54.044Z,20.54
2023-05-08T15:47:22.767Z,20.67
2023-05-08T15:49:49.648Z,20.75
2023-05-08T15:52:18.508Z,20.78
2023-05-08T15:54:47.675Z,20.72
2023-05-08T15:57:14.403Z,20.70
2023-05-08T15:59:41.148Z,20.62
2023-05-08T16:02:08.062Z,20.49
2023-05-08T16:04:34.602Z,20.38
2023-05-08T16:07:00.986Z,20.29
2023-05-08T16:09:27.364Z,20.20
2023-05-08T16:11:53.831Z,20.07
2023-05-08T16:14:20.265Z,20.06
2023-05-08T16:16:47.400Z,20.06
2023-05-08T16:19:14.872Z,19.99
2023-05-08T16:21:41.293Z,19.89
2023-05-08T16:24:07.734Z,19.79
2023-05-08T16:26:34.344Z,19.77
2023-05-08T16:29:00.734Z,19.70
2023-05-08T16:31:27.106Z,19.67
2023-05-08T16:33:53.494Z,19.60
2023-05-08T16:36:19.851Z,19.53
2023-05-08T16:38:46.188Z,19.49
2023-05-08T16:41:13.339Z,19.44
2023-05-08T16:43:39.761Z,19.42
2023-05-08T16:46:07.267Z,19.36
2023-05-08T16:48:33.934Z,19.31
2023-05-08T16:51:00.542Z,19.32
2023-05-08T16:53:27.286Z,19.33
2023-05-08T16:55:54.653Z,19.32
2023-05-08T16:58:22.814Z,19.33
2023-05-08T17:00:49.321Z,19.38
2023-05-08T17:03:15.807Z,19.46
2023-05-08T17:05:42.307Z,19.62
2023-05-08T17:08:08.763Z,19.67
2023-05-08T17:10:35.740Z,19.71
2023-05-08T17:13:02.169Z,19.72
2023-05-08T17:15:29.026Z,19.63
2023-05-08T17:17:55.921Z,19.61
2023-05-08T17:20:22.397Z,19.48
2023-05-08T17:22:48.821Z,19.37
2023-05-08T17:25:15.292Z,19.20
2023-05-08T17:27:41.641Z,19.07
2023-05-08T17:30:11.911Z,18.93
2023-05-08T17:32:38.744Z,18.80
2023-05-08T17:35:05.748Z,18.68
2023-05-08T17:37:32.106Z,18.59
2023-05-08T17:39:58.466Z,18.46
2023-05-08T17:42:24.816Z,18.37
2023-05-08T17:44:51.161Z,18.26
2023-05-08T17:47:17.557Z,18.18
2023-05-08T17:49:43.972Z,18.13
2023-05-08T17:52:10.377Z,18.11
2023-05-08T17:54:36.860Z,18.08
2023-05-08T17:57:03.255Z,17.99
2023-05-08T17:59:29.607Z,17.92
2023-05-08T18:01:56.039Z,17.88
2023-05-08T18:04:22.380Z,17.84
2023-05-08T18:06:49.458Z,17.79
2023-05-08T18:09:15.857Z,17.73
2023-05-08T18:11:42.518Z,17.66
2023-05-08T18:14:08.898Z,17.61
2023-05-08T18:16:35.334Z,17.55
2023-05-08T18:19:01.757Z,17.46
2023-05-08T18:21:28.825Z,17.42
2023-05-08T18:23:55.154Z,17.39
2023-05-08T18:26:21.605Z,17.33
2023-05-08T18:28:47.973Z,17.28
2023-05-08T18:31:16.123Z,17.22
2023-05-08T18:33:42.471Z,17.17
2023-05-08T18:36:08.876Z,17.12
2023-05-08T18:38:36.231Z,17.11
2023-05-08T18:41:03.922Z,17.06
2023-05-08T18:43:30.527Z,16.96
2023-05-08T18:45:57.987Z,16.87
2023-05-08T18:48:25.701Z,16.81
2023-05-08T18:50:52.064Z,16.79
2023-05-08T18:53:18.806Z,16.77
2023-05-08T18:55:45.175Z,16.70
2023-05-08T18:58:12.560Z,16.57
2023-05-08T19:00:39.026Z,16.53
2023-05-08T19:03:05.738Z,16.46
2023-05-08T19:05:32.252Z,16.42
2023-05-08T19:07:58.639Z,16.37
2023-05-08T19:10:25.047Z,16.27
2023-05-08T19:12:51.382Z,16.16
2023-05-08T19:15:17.893Z,16.08
2023-05-08T19:17:44.296Z,16.04
2023-05-08T19:20:11.776Z,15.94
2023-05-08T19:22:38.308Z,15.89
2023-05-08T19:25:05.164Z,15.88
2023-05-08T19:27:32.123Z,15.82
2023-05-08T19:29:58.735Z,15.69
2023-05-08T19:32:25.532Z,15.54
2023-05-08T19:34:52.026Z,15.42
2023-05-08T19:37:18.491Z,15.27
2023-05-08T19:39:44.939Z,15.13
2023-05-08T19:42:13.689Z,15.03
2023-05-08T19:44:40.305Z,14.99
2023-05-08T19:47:06.978Z,14.91
2023-05-08T19:49:33.441Z,14.85
2023-05-08T19:51:59.846Z,14.79
2023-05-08T19:54:26.165Z,14.72
2023-05-08T19:56:52.494Z,14.62
2023-05-08T19:59:18.852Z,14.57
2023-05-08T20:01:45.304Z,14.49
2023-05-08T20:04:11.750Z,14.45
2023-05-08T20:06:39.147Z,14.38
2023-05-08T20:09:06.102Z,14.30
2023-05-08T20:11:32.475Z,14.25
2023-05-08T20:13:58.938Z,14.22
2023-05-08T20:16:25.389Z,14.19
2023-05-08T20:18:53.701Z,14.20
2023-05-08T20:21:20.683Z,14.20
2023-05-08T20:23:47.064Z,14.24
2023-05-08T20:26:13.609Z,14.34
2023-05-08T20:28:40.369Z,14.46
2023-05-08T20:31:06.902Z,14.57
2023-05-08T20:33:33.280Z,14.69
2023-05-08T20:35:59.663Z,14.78
2023-05-08T20:38:26.002Z,14.83
2023-05-08T20:40:54.830Z,14.87
2023-05-08T20:43:22.767Z,14.92
2023-05-08T20:45:49.277Z,14.92
2023-05-08T20:48:15.723Z,14.93
2023-05-08T20:50:42.046Z,14.92
2023-05-08T20:53:08.389Z,14.92
2023-05-08T20:55:34.741Z,14.90
2023-05-08T20:58:01.865Z,14.90
2023-05-08T21:00:28.263Z,14.85
2023-05-08T21:02:54.692Z,14.84
2023-05-08T21:05:21.080Z,14.82
2023-05-08T21:07:47.511Z,14.82
2023-05-08T21:10:14.305Z,14.78
2023-05-08T21:12:40.913Z,14.75
2023-05-08T21:15:07.992Z,14.70
2023-05-08T21:17:34.431Z,14.60
2023-05-08T21:20:00.852Z,14.51
2023-05-08T21:22:27.285Z,14.42
2023-05-08T21:24:53.684Z,14.36
2023-05-08T21:27:20.266Z,14.30
2023-05-08T21:29:46.669Z,14.22
2023-05-08T21:32:13.031Z,14.17
2023-05-08T21:34:39.382Z,14.10
2023-05-08T21:37:05.791Z,14.04
2023-05-08T21:39:32.170Z,13.98
2023-05-08T21:41:58.507Z,13.98
2023-05-08T21:44:24.905Z,14.00
2023-05-08T21:46:51.472Z,14.06
2023-05-08T21:49:17.878Z,14.07
2023-05-08T21:51:45.631Z,14.07
2023-05-08T21:54:11.987Z,14.09
2023-05-08T21:56:38.780Z,14.11
2023-05-08T21:59:05.304Z,14.11
2023-05-08T22:01:32.027Z,14.12
2023-05-08T22:03:58.609Z,14.09
2023-05-08T22:06:25.291Z,14.09
2023-05-08T22:08:51.655Z,14.09
2023-05-08T22:11:18.048Z,14.10
2023-05-08T22:13:44.440Z,14.09
2023-05-08T22:16:10.995Z,14.10
2023-05-08T22:18:37.433Z,14.10
2023-05-08T22:21:03.901Z,14.13
2023-05-08T22:23:30.308Z,14.16
2023-05-08T22:25:56.664Z,14.15
2023-05-08T22:28:22.986Z,14.13
2023-05-08T22:30:49.424Z,14.10
2023-05-08T22:33:15.749Z,14.06
2023-05-08T22:35:42.147Z,13.99
2023-05-08T22:38:08.941Z,13.91
2023-05-08T22:40:35.583Z,13.86
2023-05-08T22:43:02.442Z,13.81
2023-05-08T22:45:29.016Z,13.76
2023-05-08T22:47:55.716Z,13.74
2023-05-08T22:50:22.079Z,13.71
2023-05-08T22:52:48.513Z,13.69
2023-05-08T22:55:15.765Z,13.68
2023-05-08T22:57:42.505Z,13.65
2023-05-08T23:00:09.374Z,13.64
2023-05-08T23:02:35.838Z,13.64
2023-05-08T23:05:02.474Z,13.61
2023-05-08T23:07:29.447Z,13.59
2023-05-08T23:09:56.002Z,13.57
2023-05-08T23:12:22.370Z,13.50
2023-05-08T23:14:48.762Z,13.47
2023-05-08T23:17:15.392Z,13.45
2023-05-08T23:19:42.367Z,13.44
2023-05-08T23:22:09.172Z,13.42
2023-05-08T23:24:36.447Z,13.39
2023-05-08T23:27:02.895Z,13.31
2023-05-08T23:29:29.318Z,13.25
2023-05-08T23:31:55.720Z,13.25
2023-05-08T23:34:22.045Z,13.26
2023-05-08T23:36:48.444Z,13.27
2023-05-08T23:39:14.805Z,13.28
2023-05-08T23:41:41.218Z,13.29
2023-05-08T23:44:07.584Z,13.30
2023-05-08T23:46:33.991Z,13.28
2023-05-08T23:49:00.473Z,13.29
2023-05-08T23:51:26.836Z,13.30
2023-05-08T23:53:53.222Z,13.33
2023-05-08T23:56:19.637Z,13.31
2023-05-08T23:58:46.054Z,13.30
